TFM - Tactical Decision Aid
ID: Runway Winds: CIG/VIS Threshold:

KGSP - Greenville-Spartansb, SC, US

Updated at: 0655 UTC 18 Sep 2021
Latest TAF at: 0532 UTC 18 Sep 2021

TAF Board

Time0000Z 18/07Z 18/08Z 18/09Z 18/10Z 18/11Z 18/12Z 18/13Z 18/14Z 18/15Z 18/16Z 18/17Z 18/18Z 18/19Z>>
Type OBS PRVL PRVL PRVL PRVL PRVL PRVL PRVL
  [TEMP]  
PRVL
  [TEMP]  
PRVL
  [TEMP]  
PRVL PRVL PRVL PRVL
VIS >6 >6 >6 >6 >6 >6 >6 >6 >6 >6 >6 >6 >6
CIG 60 60 60 60 60 60 120
  [25]  
120
  [25]  
120
  [25]  
40 40 40 40
Cover BKN BKN BKN BKN BKN BKN BKN
  [BKN]  
BKN
  [BKN]  
BKN
  [BKN]  
BKN BKN BKN BKN
FltCat VFR VFR VFR VFR VFR VFR VFR
  [MVFR]  
VFR
  [MVFR]  
VFR
  [MVFR]  
VFR VFR VFR VFR
WX -- -- -- -- -- -- --
  [--]  
--
  [--]  
--
  [--]  
-- -- -- --
WDir VRB VRB VRB VRB VRB VRB 30
[30]
30
[30]
30
[30]
90 90 90 90
WSpd 3 3 3 3 3 3 3
  [3]  
3
  [3]  
3
  [3]  
4 4 4 4
WGst -- -- -- -- -- -- --
  [--]  
--
  [--]  
--
  [--]  
-- -- -- --

TDA Impact Legend

  None Marginal Slight Moderate High
Visibility (sm) >5 2.9≤X≤5 0.9≤X<2.9 <0.9
Ceiling (100 ft) >30 9.9≤X≤30 4.9≤X<9.9 <4.9
Wind Speed (kt) <15 15≤X<25 25≤X<30 ≥30
Wind Gust (kt) <15 15≤X<25 25≤X<35 ≥35
Weather No Wx Reported VCTS -TS,-FZRA TS,FZRA +TS,+FZRA
TAF
KGSP 180532Z 1806/1906 VRB03KT P6SM BKN060
  FM181300 03003KT P6SM SCT025 BKN120
  TEMPO 1813/1816 BKN025
  FM181600 09004KT P6SM BKN040
  PROB30 1820/1824 4SM TSRA BR OVC025CB
  FM190100 00000KT P6SM SCT050 BKN180


METAR


Radar Display
Forecast Discussion